Time;durP1;ratioP1;P1;durP2;ratioP2;P2;SDS_P1;SDS_P2;PMS_P1;PMS_P2;Temp;Humidity;BMP_temperature;BMP_pressure;BME280_temperature;BME280_humidity;BME280_pressure;Samples;Min_cycle;Max_cycle;Signal;HPM_P1;HPM_P2
2023/06/19 00:00:21;;;;;;;6.53;5.93;;;;;;;;;;5065865;28;20434;-50
2023/06/19 00:02:47;;;;;;;5.50;5.00;;;;;;;;;;5062132;28;20897;-51
2023/06/19 00:05:14;;;;;;;6.63;6.03;;;;;;;;;;5063523;28;20399;-52
2023/06/19 00:07:40;;;;;;;6.27;5.67;;;;;;;;;;5062633;28;20404;-51
2023/06/19 00:10:06;;;;;;;6.47;5.87;;;;;;;;;;5056098;28;20448;-50
2023/06/19 00:12:33;;;;;;;5.90;5.30;;;;;;;;;;5066217;28;20804;-51
2023/06/19 00:14:59;;;;;;;5.77;5.37;;;;;;;;;;5064761;28;20434;-51
2023/06/19 00:17:28;;;;;;;6.40;5.10;;;;;;;;;;5065053;28;20510;-51
2023/06/19 00:19:54;;;;;;;6.43;5.93;;;;;;;;;;5059467;28;20435;-50
2023/06/19 00:22:20;;;;;;;5.73;5.17;;;;;;;;;;5060583;28;20416;-51
2023/06/19 00:24:46;;;;;;;6.80;6.10;;;;;;;;;;5063613;28;20451;-50
2023/06/19 00:27:12;;;;;;;5.67;5.20;;;;;;;;;;5065512;28;20401;-51
2023/06/19 00:29:38;;;;;;;7.00;5.77;;;;;;;;;;5062672;28;20428;-51
2023/06/19 00:32:04;;;;;;;6.00;5.30;;;;;;;;;;5066127;28;20543;-51
2023/06/19 00:34:31;;;;;;;5.73;5.23;;;;;;;;;;5064032;28;20439;-52
2023/06/19 00:36:57;;;;;;;6.20;5.60;;;;;;;;;;5057957;28;20501;-51
2023/06/19 00:39:23;;;;;;;7.70;5.50;;;;;;;;;;5057130;28;20958;-52
2023/06/19 00:41:51;;;;;;;7.07;5.70;;;;;;;;;;5061435;28;20451;-52
2023/06/19 00:44:17;;;;;;;5.87;5.40;;;;;;;;;;5064148;28;20397;-51
2023/06/19 00:46:43;;;;;;;6.13;5.63;;;;;;;;;;5062499;28;20394;-51
2023/06/19 00:49:09;;;;;;;5.60;5.10;;;;;;;;;;5062606;28;20437;-51
2023/06/19 00:51:35;;;;;;;5.80;5.20;;;;;;;;;;5062794;28;21016;-52
2023/06/19 00:54:01;;;;;;;5.57;5.17;;;;;;;;;;5061715;28;20410;-52
2023/06/19 00:56:28;;;;;;;5.87;5.27;;;;;;;;;;5066628;28;20846;-51
2023/06/19 00:58:54;;;;;;;5.57;5.07;;;;;;;;;;5060714;28;20452;-52
2023/06/19 01:01:23;;;;;;;5.70;5.20;;;;;;;;;;5060841;28;20467;-51
2023/06/19 01:03:49;;;;;;;6.50;5.97;;;;;;;;;;5062026;28;20489;-50
2023/06/19 01:06:21;;;;;;;6.17;5.67;;;;;;;;;;5061325;28;20427;-52
2023/06/19 01:09:08;;;;;;;6.23;5.63;;;;;;;;;;5061720;28;20742;-51
2023/06/19 01:11:37;;;;;;;6.63;5.40;;;;;;;;;;5052608;28;20509;-52
2023/06/19 01:14:23;;;;;;;5.73;5.23;;;;;;;;;;5056537;28;20417;-51
2023/06/19 01:16:50;;;;;;;5.70;5.17;;;;;;;;;;5058725;28;20485;-51
2023/06/19 01:19:19;;;;;;;6.80;5.70;;;;;;;;;;5058784;28;20555;-51
2023/06/19 01:21:46;;;;;;;6.37;5.90;;;;;;;;;;5062431;28;20782;-51
2023/06/19 01:24:12;;;;;;;6.50;5.87;;;;;;;;;;5063950;28;20405;-52
2023/06/19 01:26:38;;;;;;;6.37;5.77;;;;;;;;;;5060836;28;20418;-51
2023/06/19 01:29:04;;;;;;;6.30;5.70;;;;;;;;;;5062890;28;20485;-51
2023/06/19 01:31:44;;;;;;;6.07;5.50;;;;;;;;;;5060948;28;20401;-51
2023/06/19 01:34:11;;;;;;;5.37;4.97;;;;;;;;;;5064721;28;20416;-51
2023/06/19 01:36:37;;;;;;;6.10;5.60;;;;;;;;;;5064026;28;20435;-51
2023/06/19 01:39:03;;;;;;;6.43;5.70;;;;;;;;;;5066263;28;20985;-51
2023/06/19 01:41:30;;;;;;;5.57;5.07;;;;;;;;;;5059828;28;20523;-52
2023/06/19 01:43:57;;;;;;;5.93;5.33;;;;;;;;;;5058806;28;20413;-50
2023/06/19 01:46:23;;;;;;;6.83;5.50;;;;;;;;;;5059113;28;20452;-50
2023/06/19 01:48:49;;;;;;;5.97;5.47;;;;;;;;;;5061941;28;20437;-51
2023/06/19 01:51:16;;;;;;;6.23;5.63;;;;;;;;;;5063308;28;20420;-52
2023/06/19 01:53:42;;;;;;;6.60;6.10;;;;;;;;;;5062032;28;20405;-51
2023/06/19 01:56:08;;;;;;;5.83;5.40;;;;;;;;;;5064199;28;20918;-51
2023/06/19 01:58:34;;;;;;;6.20;5.47;;;;;;;;;;5057265;28;20888;-52
2023/06/19 02:01:00;;;;;;;6.53;5.97;;;;;;;;;;5051064;28;20424;-52
2023/06/19 02:03:26;;;;;;;6.60;6.03;;;;;;;;;;5066998;28;20416;-51
2023/06/19 02:05:52;;;;;;;5.77;4.97;;;;;;;;;;5061744;28;20847;-51
2023/06/19 02:08:17;;;;;;;6.10;5.60;;;;;;;;;;5062275;28;20417;-50
2023/06/19 02:10:43;;;;;;;8.53;5.33;;;;;;;;;;5063162;28;20458;-51
2023/06/19 02:13:09;;;;;;;5.90;5.40;;;;;;;;;;5060281;28;20409;-51
2023/06/19 02:15:35;;;;;;;7.20;6.50;;;;;;;;;;5061570;28;20916;-52
2023/06/19 02:18:01;;;;;;;6.20;5.67;;;;;;;;;;5054924;28;20462;-51
2023/06/19 02:20:27;;;;;;;6.77;6.07;;;;;;;;;;5062673;28;20458;-51
2023/06/19 02:22:53;;;;;;;6.70;5.97;;;;;;;;;;5060072;28;20402;-51
2023/06/19 02:25:19;;;;;;;6.03;5.50;;;;;;;;;;5060700;28;20444;-50
2023/06/19 02:27:45;;;;;;;6.20;5.70;;;;;;;;;;5061010;28;20449;-50
2023/06/19 02:30:11;;;;;;;5.63;5.17;;;;;;;;;;5059525;28;20900;-52
2023/06/19 02:32:37;;;;;;;5.90;5.40;;;;;;;;;;5059538;28;20408;-50
2023/06/19 02:35:05;;;;;;;5.90;5.40;;;;;;;;;;5059960;28;20409;-51
2023/06/19 02:37:31;;;;;;;6.10;5.60;;;;;;;;;;5063920;28;20452;-50
2023/06/19 02:39:58;;;;;;;6.20;5.77;;;;;;;;;;5051532;28;21000;-51
2023/06/19 02:42:24;;;;;;;6.33;5.83;;;;;;;;;;5054567;28;20886;-51
2023/06/19 02:44:50;;;;;;;7.00;6.17;;;;;;;;;;5059832;28;20496;-51
2023/06/19 02:47:16;;;;;;;5.67;5.23;;;;;;;;;;5059703;28;20411;-51
2023/06/19 02:49:41;;;;;;;6.30;5.80;;;;;;;;;;5059687;28;20776;-52
2023/06/19 02:52:08;;;;;;;6.77;6.07;;;;;;;;;;5063865;28;20744;-52
2023/06/19 02:54:34;;;;;;;6.63;6.03;;;;;;;;;;5059229;28;20968;-51
2023/06/19 02:57:00;;;;;;;8.03;6.93;;;;;;;;;;5056515;28;20542;-52
2023/06/19 02:59:26;;;;;;;8.33;5.73;;;;;;;;;;5055451;28;20456;-51
2023/06/19 03:01:51;;;;;;;7.03;6.33;;;;;;;;;;5061658;28;20452;-49
2023/06/19 03:04:18;;;;;;;6.23;5.70;;;;;;;;;;5062529;28;20762;-51
2023/06/19 03:06:44;;;;;;;6.40;5.90;;;;;;;;;;5060419;28;20540;-51
2023/06/19 03:09:12;;;;;;;9.97;6.33;;;;;;;;;;5059852;28;20519;-51
2023/06/19 03:11:41;;;;;;;6.83;6.13;;;;;;;;;;5061777;28;20983;-52
2023/06/19 03:14:08;;;;;;;6.50;5.90;;;;;;;;;;5055512;28;20416;-51
2023/06/19 03:16:35;;;;;;;7.33;6.73;;;;;;;;;;5062963;28;20526;-51
2023/06/19 03:19:01;;;;;;;8.57;6.00;;;;;;;;;;5059301;28;20587;-50
2023/06/19 03:21:27;;;;;;;6.60;6.10;;;;;;;;;;5058733;28;20416;-51
2023/06/19 03:23:53;;;;;;;6.27;5.67;;;;;;;;;;5061222;28;20732;-51
2023/06/19 03:26:20;;;;;;;7.03;6.43;;;;;;;;;;5059518;28;20409;-51
2023/06/19 03:28:49;;;;;;;6.83;5.40;;;;;;;;;;5059209;28;20522;-52
2023/06/19 03:31:17;;;;;;;7.30;5.10;;;;;;;;;;5058577;28;20420;-51
2023/06/19 03:33:43;;;;;;;5.40;5.00;;;;;;;;;;5064970;28;20404;-51
2023/06/19 03:36:09;;;;;;;5.40;5.00;;;;;;;;;;5062544;28;20415;-51
2023/06/19 03:38:35;;;;;;;10.10;5.53;;;;;;;;;;5056065;28;20492;-51
2023/06/19 03:41:01;;;;;;;5.20;4.70;;;;;;;;;;5062060;28;20468;-51
2023/06/19 03:43:30;;;;;;;4.87;4.47;;;;;;;;;;5058306;28;20425;-51
2023/06/19 03:45:56;;;;;;;5.13;4.73;;;;;;;;;;5059956;28;20471;-52
2023/06/19 03:48:22;;;;;;;5.03;4.57;;;;;;;;;;5064896;28;20444;-52
2023/06/19 03:50:47;;;;;;;5.97;5.47;;;;;;;;;;5065530;28;20422;-52
2023/06/19 03:53:13;;;;;;;4.53;4.23;;;;;;;;;;5056435;28;20921;-50
2023/06/19 03:55:39;;;;;;;7.00;4.63;;;;;;;;;;5063010;28;20496;-52
2023/06/19 03:58:06;;;;;;;4.47;4.13;;;;;;;;;;5065649;28;20531;-51
2023/06/19 04:00:32;;;;;;;5.00;4.60;;;;;;;;;;5063004;28;20462;-52
2023/06/19 04:02:58;;;;;;;6.23;4.73;;;;;;;;;;5065535;28;20435;-52
2023/06/19 04:05:24;;;;;;;5.10;4.60;;;;;;;;;;5063308;28;20498;-52
2023/06/19 04:07:50;;;;;;;8.03;4.43;;;;;;;;;;5064312;28;20419;-51
2023/06/19 04:10:16;;;;;;;4.53;4.23;;;;;;;;;;5052101;28;20507;-51
2023/06/19 04:12:45;;;;;;;7.37;4.70;;;;;;;;;;5066864;28;20419;-51
2023/06/19 04:15:11;;;;;;;5.50;4.80;;;;;;;;;;5064102;28;20419;-51
2023/06/19 04:17:37;;;;;;;7.27;5.13;;;;;;;;;;5060945;28;20515;-51
2023/06/19 04:20:10;;;;;;;9.53;4.97;;;;;;;;;;5063277;28;20940;-51
2023/06/19 04:22:36;;;;;;;4.63;4.10;;;;;;;;;;5062297;28;20398;-51
2023/06/19 04:25:02;;;;;;;6.97;4.30;;;;;;;;;;5062116;28;20413;-51
2023/06/19 04:27:28;;;;;;;4.20;3.87;;;;;;;;;;5061931;28;20413;-52
2023/06/19 04:29:54;;;;;;;4.97;3.97;;;;;;;;;;5066608;28;20573;-52
2023/06/19 04:32:20;;;;;;;4.60;4.20;;;;;;;;;;5063844;28;20417;-52
2023/06/19 04:34:46;;;;;;;4.53;4.13;;;;;;;;;;5059120;28;20410;-51
2023/06/19 04:37:13;;;;;;;3.40;3.07;;;;;;;;;;5060764;28;20413;-51
2023/06/19 04:39:38;;;;;;;4.13;3.73;;;;;;;;;;5061096;28;20950;-51
2023/06/19 04:42:05;;;;;;;8.63;4.10;;;;;;;;;;5057692;28;20435;-51
2023/06/19 04:44:33;;;;;;;4.10;3.70;;;;;;;;;;5061863;28;20410;-51
2023/06/19 04:47:00;;;;;;;4.13;3.83;;;;;;;;;;5065118;28;20408;-51
2023/06/19 04:49:29;;;;;;;6.13;4.33;;;;;;;;;;5061594;28;20432;-51
2023/06/19 04:51:55;;;;;;;4.50;4.10;;;;;;;;;;5057120;28;20420;-52
2023/06/19 04:54:21;;;;;;;3.77;3.47;;;;;;;;;;5064901;28;20412;-52
2023/06/19 04:56:47;;;;;;;4.73;3.83;;;;;;;;;;5061909;28;20416;-51
2023/06/19 04:59:17;;;;;;;3.90;3.60;;;;;;;;;;5063176;28;20483;-52
2023/06/19 05:01:43;;;;;;;4.20;3.90;;;;;;;;;;5061964;28;20492;-51
2023/06/19 05:04:11;;;;;;;3.87;3.47;;;;;;;;;;5062354;28;20920;-51
2023/06/19 05:06:37;;;;;;;5.60;4.10;;;;;;;;;;5061849;28;20783;-50
2023/06/19 05:09:04;;;;;;;3.87;3.57;;;;;;;;;;5060946;28;20466;-51
2023/06/19 05:11:30;;;;;;;7.70;3.70;;;;;;;;;;5055117;28;21053;-52
2023/06/19 05:13:56;;;;;;;4.33;3.93;;;;;;;;;;5062829;28;20500;-52
2023/06/19 05:16:22;;;;;;;5.40;4.00;;;;;;;;;;5060516;28;20413;-52
2023/06/19 05:18:49;;;;;;;4.10;3.70;;;;;;;;;;5061096;28;20587;-50
2023/06/19 05:21:15;;;;;;;4.13;3.83;;;;;;;;;;5059189;28;20413;-51
2023/06/19 05:23:41;;;;;;;3.30;3.00;;;;;;;;;;5061406;28;20405;-51
2023/06/19 05:26:07;;;;;;;3.90;3.37;;;;;;;;;;5066051;28;20459;-51
2023/06/19 05:28:33;;;;;;;4.50;3.50;;;;;;;;;;5064532;28;20434;-51
2023/06/19 05:30:59;;;;;;;3.60;3.20;;;;;;;;;;5057826;28;20477;-51
2023/06/19 05:33:25;;;;;;;3.37;3.17;;;;;;;;;;5058156;28;20902;-52
2023/06/19 05:35:58;;;;;;;3.90;3.60;;;;;;;;;;5062679;28;20416;-51
2023/06/19 05:38:25;;;;;;;4.50;3.20;;;;;;;;;;5062768;28;20479;-51
2023/06/19 05:40:52;;;;;;;3.17;2.87;;;;;;;;;;5061719;28;20412;-51
2023/06/19 05:43:18;;;;;;;3.37;2.50;;;;;;;;;;5050896;28;20424;-51
2023/06/19 05:45:44;;;;;;;3.30;2.93;;;;;;;;;;5062525;28;20424;-52
2023/06/19 05:48:10;;;;;;;5.30;3.90;;;;;;;;;;5057451;28;20489;-52
2023/06/19 05:50:36;;;;;;;4.13;2.73;;;;;;;;;;5063135;28;20420;-51
2023/06/19 05:53:02;;;;;;;2.93;2.70;;;;;;;;;;5057836;28;20422;-51
2023/06/19 05:55:28;;;;;;;2.70;2.50;;;;;;;;;;5060355;28;20420;-51
2023/06/19 05:57:54;;;;;;;2.60;2.40;;;;;;;;;;5062451;28;20452;-50
2023/06/19 06:00:20;;;;;;;3.43;2.80;;;;;;;;;;5058331;28;20431;-51
2023/06/19 06:02:46;;;;;;;5.53;2.80;;;;;;;;;;5060962;28;20436;-51
2023/06/19 06:05:12;;;;;;;3.13;2.90;;;;;;;;;;5059347;28;20830;-51
2023/06/19 06:07:38;;;;;;;3.10;2.50;;;;;;;;;;5064980;28;20408;-52
2023/06/19 06:10:05;;;;;;;4.07;3.00;;;;;;;;;;5058400;28;20987;-51
2023/06/19 06:12:31;;;;;;;3.43;3.13;;;;;;;;;;5054061;28;20437;-52
2023/06/19 06:14:57;;;;;;;3.33;2.63;;;;;;;;;;5060114;28;20422;-52
2023/06/19 06:17:23;;;;;;;3.03;2.83;;;;;;;;;;5059971;28;20408;-51
2023/06/19 06:19:49;;;;;;;3.67;3.03;;;;;;;;;;5061010;28;20926;-51
2023/06/19 06:22:15;;;;;;;2.37;2.23;;;;;;;;;;5063398;28;20432;-51
2023/06/19 06:24:41;;;;;;;4.50;2.70;;;;;;;;;;5064135;28;20437;-51
2023/06/19 06:27:07;;;;;;;3.00;2.70;;;;;;;;;;5058229;28;20490;-52
2023/06/19 06:29:33;;;;;;;3.23;3.03;;;;;;;;;;5055853;28;20946;-52
2023/06/19 06:32:06;;;;;;;2.90;2.70;;;;;;;;;;5059786;28;20479;-52
2023/06/19 06:34:32;;;;;;;3.17;2.97;;;;;;;;;;5050584;28;20417;-52
2023/06/19 06:36:58;;;;;;;2.30;2.20;;;;;;;;;;5051042;28;20404;-52
2023/06/19 06:39:24;;;;;;;3.10;2.90;;;;;;;;;;5047820;28;20818;-52
2023/06/19 06:41:50;;;;;;;3.77;3.30;;;;;;;;;;5046475;28;20438;-51
2023/06/19 06:44:16;;;;;;;3.40;3.10;;;;;;;;;;5048398;28;20910;-51
2023/06/19 06:46:45;;;;;;;2.63;2.43;;;;;;;;;;5048572;28;20500;-52
2023/06/19 06:49:11;;;;;;;5.20;2.80;;;;;;;;;;5049038;28;20467;-52
2023/06/19 06:51:37;;;;;;;3.10;2.80;;;;;;;;;;5043957;28;20926;-52
2023/06/19 06:54:03;;;;;;;4.93;3.70;;;;;;;;;;5050024;28;20408;-51
2023/06/19 06:56:29;;;;;;;2.80;2.60;;;;;;;;;;5047371;28;20405;-51
2023/06/19 06:58:55;;;;;;;3.00;2.80;;;;;;;;;;5059192;28;20471;-51
2023/06/19 07:01:21;;;;;;;3.10;2.80;;;;;;;;;;5056049;28;20839;-51
2023/06/19 07:03:47;;;;;;;3.33;3.00;;;;;;;;;;5061327;28;20404;-51
2023/06/19 07:06:13;;;;;;;3.00;2.80;;;;;;;;;;5060628;28;20910;-52
2023/06/19 07:08:40;;;;;;;3.17;2.97;;;;;;;;;;5057016;28;20429;-52
2023/06/19 07:11:08;;;;;;;3.40;2.83;;;;;;;;;;5059179;28;20411;-52
2023/06/19 07:13:34;;;;;;;3.40;3.07;;;;;;;;;;5059362;28;20501;-52
2023/06/19 07:16:01;;;;;;;3.03;2.83;;;;;;;;;;5057282;28;20511;-52
2023/06/19 07:18:27;;;;;;;3.10;2.90;;;;;;;;;;5061467;28;20471;-52
2023/06/19 07:20:53;;;;;;;3.03;2.67;;;;;;;;;;5065767;28;20420;-51
2023/06/19 07:23:19;;;;;;;3.13;2.87;;;;;;;;;;5063504;28;20478;-52
2023/06/19 07:25:46;;;;;;;3.47;3.17;;;;;;;;;;5059320;28;20413;-52
2023/06/19 07:28:12;;;;;;;3.53;3.00;;;;;;;;;;5071639;28;20408;-51
2023/06/19 07:30:38;;;;;;;4.10;3.20;;;;;;;;;;5063682;28;20404;-52
2023/06/19 07:33:04;;;;;;;3.87;3.07;;;;;;;;;;5066512;28;20400;-51
2023/06/19 07:35:30;;;;;;;3.73;3.43;;;;;;;;;;5062899;28;20425;-52
2023/06/19 07:37:56;;;;;;;4.37;2.73;;;;;;;;;;5064310;28;20470;-51
2023/06/19 07:40:22;;;;;;;4.13;3.27;;;;;;;;;;5060977;28;20794;-52
2023/06/19 07:42:48;;;;;;;3.23;3.03;;;;;;;;;;5064546;28;20396;-50
2023/06/19 07:45:14;;;;;;;3.30;3.10;;;;;;;;;;5065328;28;20773;-52
2023/06/19 07:47:40;;;;;;;3.40;3.20;;;;;;;;;;5056803;28;20884;-52
2023/06/19 07:50:06;;;;;;;3.90;3.17;;;;;;;;;;5064089;28;20496;-51
2023/06/19 07:52:33;;;;;;;3.53;3.23;;;;;;;;;;5062954;28;21178;-51
2023/06/19 07:54:59;;;;;;;2.73;2.53;;;;;;;;;;5063713;28;20409;-51
2023/06/19 07:57:25;;;;;;;3.33;3.13;;;;;;;;;;5062481;28;20413;-51
2023/06/19 07:59:51;;;;;;;3.50;3.20;;;;;;;;;;5068176;28;20972;-52
2023/06/19 08:02:18;;;;;;;6.90;3.10;;;;;;;;;;5064407;28;20780;-51
2023/06/19 08:04:44;;;;;;;3.17;2.87;;;;;;;;;;5060392;28;20450;-52
2023/06/19 08:07:09;;;;;;;2.73;2.53;;;;;;;;;;5062390;28;20901;-52
2023/06/19 08:09:35;;;;;;;4.43;3.33;;;;;;;;;;5062416;28;20430;-51
2023/06/19 08:12:02;;;;;;;3.03;2.83;;;;;;;;;;5065284;28;20439;-52
2023/06/19 08:14:28;;;;;;;2.87;2.40;;;;;;;;;;5064637;28;20785;-52
2023/06/19 08:16:55;;;;;;;4.30;2.60;;;;;;;;;;5060813;28;20528;-51
2023/06/19 08:19:21;;;;;;;2.60;2.40;;;;;;;;;;5065260;28;20460;-51
2023/06/19 08:21:47;;;;;;;2.97;2.77;;;;;;;;;;5057610;28;20420;-52
2023/06/19 08:24:13;;;;;;;3.20;2.90;;;;;;;;;;5065141;28;20408;-51
2023/06/19 08:26:39;;;;;;;3.43;3.17;;;;;;;;;;5062400;28;20396;-51
2023/06/19 08:29:05;;;;;;;3.23;2.93;;;;;;;;;;5065323;28;20424;-52
2023/06/19 08:31:31;;;;;;;5.20;3.33;;;;;;;;;;5061622;28;20453;-52
2023/06/19 08:33:56;;;;;;;4.33;3.53;;;;;;;;;;5067134;28;20416;-51
2023/06/19 08:36:23;;;;;;;2.80;2.60;;;;;;;;;;5065651;28;20416;-52
2023/06/19 08:38:50;;;;;;;3.10;2.80;;;;;;;;;;5063319;28;20456;-52
2023/06/19 08:41:18;;;;;;;2.97;2.77;;;;;;;;;;5064714;28;20763;-51
2023/06/19 08:43:44;;;;;;;3.40;3.10;;;;;;;;;;5061317;28;20843;-52
2023/06/19 08:46:11;;;;;;;3.33;3.03;;;;;;;;;;5063469;28;20438;-51
2023/06/19 08:48:37;;;;;;;2.50;2.40;;;;;;;;;;5059420;28;20464;-52
2023/06/19 08:51:04;;;;;;;3.50;3.30;;;;;;;;;;5061066;28;20413;-51
2023/06/19 08:53:32;;;;;;;4.83;3.00;;;;;;;;;;5061518;28;20417;-51
2023/06/19 08:55:58;;;;;;;5.57;3.00;;;;;;;;;;5067762;28;20410;-52
2023/06/19 08:58:24;;;;;;;3.43;3.03;;;;;;;;;;5052902;28;20469;-51
2023/06/19 09:00:50;;;;;;;5.43;3.43;;;;;;;;;;5047340;28;20441;-51
2023/06/19 09:03:21;;;;;;;3.63;3.10;;;;;;;;;;5049095;28;20433;-51
2023/06/19 09:05:50;;;;;;;3.23;3.00;;;;;;;;;;5049907;28;20424;-52
2023/06/19 09:08:16;;;;;;;4.00;2.90;;;;;;;;;;5053531;28;20416;-51
2023/06/19 09:10:42;;;;;;;6.10;2.77;;;;;;;;;;5050514;28;20429;-51
2023/06/19 09:13:09;;;;;;;4.60;3.10;;;;;;;;;;5050246;28;20479;-52
2023/06/19 09:15:37;;;;;;;3.10;2.90;;;;;;;;;;5046796;28;20791;-52
2023/06/19 09:18:07;;;;;;;2.90;2.70;;;;;;;;;;5049389;28;20583;-52
2023/06/19 09:20:34;;;;;;;2.97;2.77;;;;;;;;;;5052100;28;20409;-52
2023/06/19 09:23:00;;;;;;;3.23;2.67;;;;;;;;;;5064229;28;20430;-52
2023/06/19 09:25:26;;;;;;;3.30;3.00;;;;;;;;;;5062193;28;20403;-52
2023/06/19 09:27:54;;;;;;;5.30;3.27;;;;;;;;;;5063651;28;20401;-52
2023/06/19 09:30:20;;;;;;;5.70;3.00;;;;;;;;;;5060732;28;20455;-53
2023/06/19 09:32:46;;;;;;;2.97;2.77;;;;;;;;;;5062344;28;20470;-52
2023/06/19 09:35:12;;;;;;;2.70;2.50;;;;;;;;;;5060672;28;20502;-53
2023/06/19 09:37:40;;;;;;;4.20;3.80;;;;;;;;;;5067292;28;20461;-52
2023/06/19 09:40:10;;;;;;;3.00;2.80;;;;;;;;;;5060259;28;20530;-53
2023/06/19 09:42:38;;;;;;;2.47;2.37;;;;;;;;;;5057615;28;20407;-52
2023/06/19 09:45:05;;;;;;;3.93;3.43;;;;;;;;;;5061941;28;20518;-52
2023/06/19 09:47:33;;;;;;;2.80;2.60;;;;;;;;;;5062608;28;20921;-52
2023/06/19 09:50:00;;;;;;;2.80;2.60;;;;;;;;;;5062291;28;20505;-52
2023/06/19 09:52:27;;;;;;;2.63;2.53;;;;;;;;;;5063826;28;20968;-52
2023/06/19 09:54:54;;;;;;;3.27;2.97;;;;;;;;;;5061875;28;20422;-52
2023/06/19 09:57:20;;;;;;;3.50;3.20;;;;;;;;;;5061706;28;20407;-53
2023/06/19 09:59:49;;;;;;;5.53;2.90;;;;;;;;;;5047641;28;20514;-52
2023/06/19 10:02:15;;;;;;;5.97;3.40;;;;;;;;;;5058868;28;20416;-52
2023/06/19 10:04:45;;;;;;;5.47;2.90;;;;;;;;;;5061982;28;20462;-52
2023/06/19 10:07:18;;;;;;;6.27;3.37;;;;;;;;;;5063866;28;20804;-51
2023/06/19 10:10:01;;;;;;;2.80;2.60;;;;;;;;;;5059003;28;20417;-52
2023/06/19 10:12:37;;;;;;;3.17;2.90;;;;;;;;;;5054879;28;20910;-52
2023/06/19 10:15:14;;;;;;;3.43;3.13;;;;;;;;;;5057428;28;20405;-52
2023/06/19 10:17:45;;;;;;;4.93;3.63;;;;;;;;;;5062694;28;20451;-53
2023/06/19 10:20:32;;;;;;;3.80;3.23;;;;;;;;;;5059209;28;20429;-51
2023/06/19 10:23:00;;;;;;;5.90;3.40;;;;;;;;;;5063958;28;20436;-53
2023/06/19 10:25:28;;;;;;;3.23;3.03;;;;;;;;;;5051033;28;20465;-52
2023/06/19 10:27:54;;;;;;;3.53;3.23;;;;;;;;;;5061050;28;20444;-52
2023/06/19 10:30:20;;;;;;;3.00;2.80;;;;;;;;;;5062628;28;20945;-52
2023/06/19 10:32:49;;;;;;;8.17;3.57;;;;;;;;;;5061532;28;20420;-53
2023/06/19 10:35:16;;;;;;;6.00;3.50;;;;;;;;;;5065756;28;20830;-52
2023/06/19 10:37:44;;;;;;;4.27;3.13;;;;;;;;;;5060346;28;20503;-54
2023/06/19 10:40:12;;;;;;;3.17;2.57;;;;;;;;;;5060907;28;21341;-52
2023/06/19 10:42:38;;;;;;;4.40;3.33;;;;;;;;;;5054892;28;20540;-53
2023/06/19 10:45:08;;;;;;;3.20;3.00;;;;;;;;;;5063074;28;20411;-53
2023/06/19 10:47:35;;;;;;;3.57;3.27;;;;;;;;;;5063220;28;20412;-53
2023/06/19 10:50:01;;;;;;;3.60;3.30;;;;;;;;;;5059330;28;21007;-53
2023/06/19 10:52:29;;;;;;;4.80;3.13;;;;;;;;;;5059860;28;20405;-53
2023/06/19 10:54:55;;;;;;;5.43;3.47;;;;;;;;;;5063688;28;20401;-53
2023/06/19 10:57:31;;;;;;;3.53;3.10;;;;;;;;;;5063819;28;20397;-53
2023/06/19 10:59:58;;;;;;;7.03;3.53;;;;;;;;;;5063267;28;20482;-53
2023/06/19 11:02:24;;;;;;;6.20;4.33;;;;;;;;;;5063667;28;20401;-54
2023/06/19 11:04:52;;;;;;;4.80;3.33;;;;;;;;;;5068643;28;20432;-54
2023/06/19 11:07:19;;;;;;;3.60;3.30;;;;;;;;;;5064761;28;20411;-53
2023/06/19 11:09:45;;;;;;;3.83;3.40;;;;;;;;;;5057997;28;20968;-53
2023/06/19 11:12:11;;;;;;;3.60;3.10;;;;;;;;;;5061736;28;20411;-54
2023/06/19 11:14:39;;;;;;;4.13;3.37;;;;;;;;;;5063611;28;21132;-54
2023/06/19 11:17:06;;;;;;;3.63;3.33;;;;;;;;;;5067045;28;20780;-53
2023/06/19 11:19:35;;;;;;;4.70;3.47;;;;;;;;;;5063453;28;20472;-52
2023/06/19 11:22:03;;;;;;;3.43;3.23;;;;;;;;;;5059538;28;20964;-53
2023/06/19 11:24:29;;;;;;;5.83;3.43;;;;;;;;;;5064214;28;20457;-54
2023/06/19 11:26:58;;;;;;;5.43;3.67;;;;;;;;;;5058648;28;20754;-53
2023/06/19 11:29:25;;;;;;;3.47;3.17;;;;;;;;;;5066883;28;20432;-54
2023/06/19 11:31:53;;;;;;;3.87;3.60;;;;;;;;;;5063096;28;20460;-54
2023/06/19 11:34:19;;;;;;;4.20;3.70;;;;;;;;;;5064239;28;20411;-54
2023/06/19 11:36:45;;;;;;;3.37;3.10;;;;;;;;;;5055494;28;20457;-53
2023/06/19 11:39:15;;;;;;;5.17;3.80;;;;;;;;;;5063194;28;20973;-53
2023/06/19 11:41:42;;;;;;;4.20;3.80;;;;;;;;;;5062300;28;20557;-53
2023/06/19 11:44:11;;;;;;;3.77;3.30;;;;;;;;;;5062935;28;20437;-54
2023/06/19 11:46:37;;;;;;;4.97;4.43;;;;;;;;;;5068044;28;20526;-53
2023/06/19 11:49:13;;;;;;;4.00;3.70;;;;;;;;;;5047885;28;20557;-53
2023/06/19 11:51:39;;;;;;;4.00;3.60;;;;;;;;;;5057419;28;20404;-54
2023/06/19 11:54:07;;;;;;;4.40;4.10;;;;;;;;;;5062320;28;20414;-54
2023/06/19 11:56:33;;;;;;;4.40;3.97;;;;;;;;;;5062693;28;20406;-54
2023/06/19 11:58:59;;;;;;;3.93;2.93;;;;;;;;;;5065506;28;20998;-53
2023/06/19 12:01:26;;;;;;;3.40;3.10;;;;;;;;;;5063898;28;20405;-53
2023/06/19 12:03:52;;;;;;;6.33;3.53;;;;;;;;;;5062510;28;20431;-53
2023/06/19 12:06:18;;;;;;;5.50;4.00;;;;;;;;;;5055671;28;20452;-53
2023/06/19 12:08:44;;;;;;;4.97;3.50;;;;;;;;;;5053538;28;20927;-53
2023/06/19 12:11:12;;;;;;;4.40;4.00;;;;;;;;;;5058972;28;20861;-54
2023/06/19 12:13:42;;;;;;;4.63;3.90;;;;;;;;;;5062668;28;20409;-54
2023/06/19 12:16:08;;;;;;;6.93;4.07;;;;;;;;;;5064871;28;20407;-53
2023/06/19 12:18:34;;;;;;;3.77;3.47;;;;;;;;;;5061924;28;20539;-54
2023/06/19 12:21:01;;;;;;;5.37;3.80;;;;;;;;;;5062355;28;20500;-54
2023/06/19 12:23:27;;;;;;;8.57;4.30;;;;;;;;;;5060796;28;20750;-54
2023/06/19 12:25:52;;;;;;;7.23;3.77;;;;;;;;;;5063059;28;20412;-54
2023/06/19 12:28:19;;;;;;;4.53;3.60;;;;;;;;;;5064739;28;20412;-54
2023/06/19 12:30:45;;;;;;;3.87;3.57;;;;;;;;;;5063000;28;20548;-53
2023/06/19 12:33:11;;;;;;;4.10;3.70;;;;;;;;;;5062513;28;20506;-53
2023/06/19 12:35:41;;;;;;;4.37;4.00;;;;;;;;;;5061467;28;20402;-53
2023/06/19 12:38:07;;;;;;;3.73;3.43;;;;;;;;;;5052701;28;20459;-54
2023/06/19 12:40:34;;;;;;;4.50;4.10;;;;;;;;;;5060746;28;20421;-54
2023/06/19 12:43:00;;;;;;;7.43;3.43;;;;;;;;;;5066900;28;20894;-54
2023/06/19 12:45:26;;;;;;;4.10;3.70;;;;;;;;;;5064133;28;20902;-55
2023/06/19 12:47:52;;;;;;;4.07;3.77;;;;;;;;;;5058473;28;20571;-54
2023/06/19 12:50:18;;;;;;;3.60;3.40;;;;;;;;;;5059024;28;20820;-54
2023/06/19 12:52:44;;;;;;;5.40;3.67;;;;;;;;;;5062412;28;20987;-54
2023/06/19 12:55:10;;;;;;;4.20;3.80;;;;;;;;;;5065275;28;20929;-55
2023/06/19 12:57:36;;;;;;;4.00;3.60;;;;;;;;;;5056796;28;20424;-54
2023/06/19 13:00:07;;;;;;;5.30;3.70;;;;;;;;;;5061536;28;20425;-54
2023/06/19 13:02:33;;;;;;;7.17;3.43;;;;;;;;;;5062902;28;20509;-54
2023/06/19 13:05:01;;;;;;;4.23;3.67;;;;;;;;;;5057263;28;20989;-54
2023/06/19 13:07:27;;;;;;;3.77;3.43;;;;;;;;;;5064965;28;20404;-54
2023/06/19 13:09:53;;;;;;;4.07;3.77;;;;;;;;;;5061990;28;20440;-55
2023/06/19 13:12:22;;;;;;;4.60;3.73;;;;;;;;;;5062463;28;20400;-54
2023/06/19 13:14:48;;;;;;;4.00;3.60;;;;;;;;;;5063179;28;20809;-54
2023/06/19 13:17:14;;;;;;;4.53;3.67;;;;;;;;;;5059718;28;20968;-55
2023/06/19 13:19:41;;;;;;;7.73;4.00;;;;;;;;;;5061221;28;20826;-55
2023/06/19 13:22:07;;;;;;;4.27;3.90;;;;;;;;;;5060973;28;20410;-55
2023/06/19 13:24:33;;;;;;;3.80;3.50;;;;;;;;;;5056502;28;20459;-55
2023/06/19 13:26:59;;;;;;;3.73;3.43;;;;;;;;;;5060438;28;20444;-54
2023/06/19 13:29:25;;;;;;;4.30;3.90;;;;;;;;;;5060248;28;20440;-54
2023/06/19 13:31:51;;;;;;;5.03;4.00;;;;;;;;;;5061008;28;20973;-55
2023/06/19 13:34:18;;;;;;;4.23;3.77;;;;;;;;;;5066592;28;20897;-54
2023/06/19 13:36:44;;;;;;;4.00;3.67;;;;;;;;;;5063246;28;20405;-54
2023/06/19 13:39:12;;;;;;;4.43;4.00;;;;;;;;;;5065466;28;20483;-55
2023/06/19 13:41:38;;;;;;;5.33;4.13;;;;;;;;;;5064309;28;20409;-54
2023/06/19 13:44:04;;;;;;;6.77;3.83;;;;;;;;;;5058764;28;20410;-54
2023/06/19 13:46:31;;;;;;;4.17;3.87;;;;;;;;;;5057486;28;20425;-54
2023/06/19 13:48:57;;;;;;;4.80;4.40;;;;;;;;;;5063420;28;20514;-54
2023/06/19 13:51:23;;;;;;;9.53;3.60;;;;;;;;;;5049044;28;20468;-53
2023/06/19 13:53:50;;;;;;;4.57;4.17;;;;;;;;;;5062530;28;20448;-54
2023/06/19 13:56:16;;;;;;;5.97;4.17;;;;;;;;;;5062628;28;20409;-54
2023/06/19 13:58:42;;;;;;;4.43;4.03;;;;;;;;;;5062608;28;20464;-54
2023/06/19 14:01:08;;;;;;;4.17;3.83;;;;;;;;;;5056535;28;20416;-54
2023/06/19 14:03:35;;;;;;;4.60;4.20;;;;;;;;;;5058670;28;20433;-54
2023/06/19 14:06:00;;;;;;;4.53;3.50;;;;;;;;;;5062728;28;20782;-54
2023/06/19 14:08:26;;;;;;;4.70;4.20;;;;;;;;;;5060641;28;20425;-54
2023/06/19 14:10:52;;;;;;;5.20;3.90;;;;;;;;;;5062217;28;21111;-54
2023/06/19 14:13:18;;;;;;;3.87;3.57;;;;;;;;;;5060320;28;20667;-54
2023/06/19 14:15:44;;;;;;;4.20;3.90;;;;;;;;;;5060928;28;20691;-54
2023/06/19 14:18:10;;;;;;;4.37;3.80;;;;;;;;;;5059913;28;20461;-54
2023/06/19 14:20:36;;;;;;;4.87;3.43;;;;;;;;;;5065301;28;20481;-54
2023/06/19 14:23:02;;;;;;;7.83;3.80;;;;;;;;;;5058307;28;20193;-55
2023/06/19 14:25:28;;;;;;;3.97;3.60;;;;;;;;;;5061944;28;20487;-55
2023/06/19 14:27:54;;;;;;;5.00;4.50;;;;;;;;;;5060832;28;20181;-54
2023/06/19 14:30:20;;;;;;;5.00;4.20;;;;;;;;;;5059333;28;20429;-54
2023/06/19 14:32:47;;;;;;;4.10;3.80;;;;;;;;;;5061215;28;20496;-55
2023/06/19 14:35:13;;;;;;;3.63;3.40;;;;;;;;;;5064135;28;20417;-55
2023/06/19 14:37:39;;;;;;;4.10;3.80;;;;;;;;;;5063868;28;20419;-54
2023/06/19 14:40:06;;;;;;;4.00;3.60;;;;;;;;;;5058154;28;20424;-55